createdAt,value
2018-01-13T00:00:27.525Z,12.73
2018-01-13T00:02:55.078Z,11.03
2018-01-13T00:05:22.626Z,10.00
2018-01-13T00:07:50.173Z,11.93
2018-01-13T00:10:17.879Z,11.27
2018-01-13T00:12:45.429Z,11.70
2018-01-13T00:15:12.991Z,10.90
2018-01-13T00:17:40.595Z,9.67
2018-01-13T00:20:08.345Z,10.70
2018-01-13T00:22:39.614Z,9.60
2018-01-13T00:25:07.227Z,9.97
2018-01-13T00:27:34.961Z,8.97
2018-01-13T00:30:02.530Z,12.87
2018-01-13T00:32:30.291Z,11.47
2018-01-13T00:34:57.824Z,8.83
2018-01-13T00:37:25.374Z,8.93
2018-01-13T00:39:52.914Z,9.00
2018-01-13T00:42:20.507Z,10.73
2018-01-13T00:44:48.253Z,9.97
2018-01-13T00:47:15.791Z,8.70
2018-01-13T00:49:43.338Z,10.60
2018-01-13T00:52:11.039Z,9.33
2018-01-13T00:54:38.598Z,9.70
2018-01-13T00:57:06.170Z,10.23
2018-01-13T00:59:33.725Z,10.73
2018-01-13T01:02:01.268Z,9.57
2018-01-13T01:04:28.913Z,9.20
2018-01-13T01:06:56.461Z,8.87
2018-01-13T01:09:24.051Z,9.10
2018-01-13T01:11:51.613Z,8.83
2018-01-13T01:14:19.200Z,8.70
2018-01-13T01:16:46.742Z,8.77
2018-01-13T01:19:14.334Z,7.97
2018-01-13T01:21:41.966Z,9.20
2018-01-13T01:24:09.517Z,8.67
2018-01-13T01:26:37.111Z,8.23
2018-01-13T01:29:04.816Z,8.57
2018-01-13T01:31:32.417Z,8.30
2018-01-13T01:33:59.950Z,9.30
2018-01-13T01:36:27.494Z,9.20
2018-01-13T01:38:55.186Z,9.17
2018-01-13T01:41:22.717Z,9.90
2018-01-13T01:43:50.254Z,8.97
2018-01-13T01:46:17.939Z,9.60
2018-01-13T01:48:45.658Z,9.53
2018-01-13T01:51:13.198Z,8.97
2018-01-13T01:53:40.734Z,10.13
2018-01-13T01:56:08.266Z,10.07
2018-01-13T01:58:35.802Z,10.90
2018-01-13T02:01:03.353Z,10.63
2018-01-13T02:03:30.897Z,10.07
2018-01-13T02:05:58.582Z,10.53
2018-01-13T02:08:26.126Z,9.67
2018-01-13T02:10:53.818Z,10.77
2018-01-13T02:13:21.420Z,10.73
2018-01-13T02:15:48.958Z,9.83
2018-01-13T02:18:16.490Z,10.57
2018-01-13T02:20:44.187Z,10.57
2018-01-13T02:23:11.730Z,10.23
2018-01-13T02:25:39.265Z,10.83
2018-01-13T02:28:06.858Z,10.60
2018-01-13T02:30:34.414Z,11.00
2018-01-13T02:33:01.950Z,11.80
2018-01-13T02:35:29.483Z,13.37
2018-01-13T02:37:57.026Z,11.40
2018-01-13T02:40:24.627Z,13.40
2018-01-13T02:42:52.157Z,11.97
2018-01-13T02:45:19.698Z,10.77
2018-01-13T02:47:47.485Z,12.37
2018-01-13T02:50:15.112Z,11.90
2018-01-13T02:52:42.655Z,11.90
2018-01-13T02:55:10.195Z,11.63
2018-01-13T02:57:37.795Z,11.50
2018-01-13T03:00:05.382Z,13.67
2018-01-13T03:02:32.994Z,12.90
2018-01-13T03:05:00.534Z,13.70
2018-01-13T03:07:28.078Z,12.97
2018-01-13T03:09:55.842Z,13.37
2018-01-13T03:12:23.409Z,11.60
2018-01-13T03:14:50.973Z,13.53
2018-01-13T03:17:18.550Z,13.57
2018-01-13T03:19:46.095Z,14.47
2018-01-13T03:22:13.641Z,13.20
2018-01-13T03:24:41.193Z,14.07
2018-01-13T03:27:08.751Z,13.33
2018-01-13T03:29:36.390Z,12.13
2018-01-13T03:32:04.007Z,13.33
2018-01-13T03:34:31.553Z,13.53
2018-01-13T03:36:59.098Z,13.93
2018-01-13T03:39:26.648Z,14.83
2018-01-13T03:41:54.274Z,14.17
2018-01-13T03:44:21.818Z,15.30
2018-01-13T03:46:49.366Z,14.20
2018-01-13T03:49:16.905Z,15.17
2018-01-13T03:51:44.542Z,14.07
2018-01-13T03:54:12.269Z,11.97
2018-01-13T03:56:40.079Z,13.57
2018-01-13T03:59:07.633Z,14.47
2018-01-13T04:01:35.169Z,14.07
2018-01-13T04:04:02.713Z,11.67
2018-01-13T04:06:30.255Z,13.73
2018-01-13T04:08:57.825Z,14.83
2018-01-13T04:11:25.378Z,16.80
2018-01-13T04:13:53.104Z,15.60
2018-01-13T04:16:20.641Z,15.87
2018-01-13T04:18:48.206Z,17.30
2018-01-13T04:21:15.958Z,17.63
2018-01-13T04:23:43.495Z,18.13
2018-01-13T04:26:11.034Z,20.37
2018-01-13T04:28:38.582Z,20.53
2018-01-13T04:31:06.126Z,19.60
2018-01-13T04:33:33.667Z,21.33
2018-01-13T04:36:01.366Z,20.10
2018-01-13T04:38:28.905Z,23.00
2018-01-13T04:40:56.438Z,19.60
2018-01-13T04:43:23.981Z,22.97
2018-01-13T04:45:51.702Z,21.40
2018-01-13T04:48:19.238Z,21.20
2018-01-13T04:50:46.978Z,23.50
2018-01-13T04:53:14.513Z,22.27
2018-01-13T04:55:42.086Z,22.57
2018-01-13T04:58:09.629Z,22.20
2018-01-13T05:00:37.202Z,22.13
2018-01-13T05:03:04.758Z,22.67
2018-01-13T05:05:32.379Z,24.50
2018-01-13T05:08:00.096Z,24.17
2018-01-13T05:10:27.629Z,25.63
2018-01-13T05:12:55.208Z,24.83
2018-01-13T05:15:22.745Z,26.90
2018-01-13T05:17:50.367Z,27.67
2018-01-13T05:20:17.988Z,28.10
2018-01-13T05:22:45.704Z,29.93
2018-01-13T05:27:46.977Z,29.13
2018-01-13T05:30:14.678Z,32.67
2018-01-13T05:32:42.261Z,29.17
2018-01-13T05:35:09.803Z,28.37
2018-01-13T05:37:37.333Z,34.60
2018-01-13T05:40:04.890Z,28.67
2018-01-13T05:42:32.667Z,26.60
2018-01-13T05:45:00.386Z,30.23
2018-01-13T05:47:27.921Z,29.70
2018-01-13T05:49:55.623Z,31.60
2018-01-13T05:52:23.237Z,28.53
2018-01-13T05:54:50.860Z,30.30
2018-01-13T05:57:18.434Z,28.00
2018-01-13T05:59:45.970Z,32.40
2018-01-13T06:02:13.673Z,33.60
2018-01-13T06:04:41.218Z,29.07
2018-01-13T06:07:08.822Z,31.10
2018-01-13T06:09:36.398Z,30.43
2018-01-13T06:12:03.952Z,30.43
2018-01-13T06:14:31.545Z,29.13
2018-01-13T06:16:59.222Z,40.27
2018-01-13T06:19:26.769Z,28.87
2018-01-13T06:21:54.526Z,28.83
2018-01-13T06:24:22.270Z,29.77
2018-01-13T06:26:49.826Z,30.57
2018-01-13T06:29:17.369Z,30.23
2018-01-13T06:31:44.905Z,30.83
2018-01-13T06:34:12.489Z,28.97
2018-01-13T06:36:40.954Z,27.70
2018-01-13T06:39:08.583Z,28.97
2018-01-13T06:41:36.142Z,29.33
2018-01-13T06:44:03.690Z,27.83
2018-01-13T06:46:31.434Z,29.60
2018-01-13T06:48:59.151Z,27.60
2018-01-13T06:51:26.693Z,27.07
2018-01-13T06:53:54.488Z,28.57
2018-01-13T06:56:22.106Z,24.67
2018-01-13T06:58:49.826Z,28.50
2018-01-13T07:01:17.376Z,26.67
2018-01-13T07:03:44.917Z,29.07
2018-01-13T07:06:12.609Z,26.43
2018-01-13T07:08:40.322Z,27.20
2018-01-13T07:11:08.046Z,27.90
2018-01-13T07:13:35.650Z,25.95
2018-01-13T07:16:03.242Z,26.50
2018-01-13T07:18:31.118Z,27.83
2018-01-13T07:20:58.888Z,25.87
2018-01-13T07:23:26.524Z,32.80
2018-01-13T07:25:54.062Z,29.37
2018-01-13T07:28:21.769Z,28.63
2018-01-13T07:30:49.449Z,30.47
2018-01-13T07:33:17.168Z,30.13
2018-01-13T07:35:44.750Z,29.43
2018-01-13T07:38:12.282Z,30.10
2018-01-13T07:40:39.826Z,28.90
2018-01-13T07:43:07.374Z,26.03
2018-01-13T07:45:34.925Z,29.53
2018-01-13T07:48:02.611Z,27.90
2018-01-13T07:50:30.157Z,28.83
2018-01-13T07:52:57.695Z,23.17
2018-01-13T07:55:25.370Z,28.20
2018-01-13T07:57:52.906Z,33.47
2018-01-13T08:00:20.602Z,30.93
2018-01-13T08:02:48.318Z,28.70
2018-01-13T08:05:15.858Z,28.93
2018-01-13T08:07:43.655Z,30.43
2018-01-13T08:10:11.374Z,28.63
2018-01-13T08:12:39.099Z,35.73
2018-01-13T08:15:06.710Z,32.03
2018-01-13T08:17:34.330Z,35.50
2018-01-13T08:20:02.045Z,31.27
2018-01-13T08:22:29.582Z,32.77
2018-01-13T08:24:57.481Z,23.77
2018-01-13T08:27:25.201Z,28.90
2018-01-13T08:29:52.746Z,31.73
2018-01-13T08:32:20.436Z,33.90
2018-01-13T08:34:47.982Z,35.70
2018-01-13T08:37:15.731Z,29.17
2018-01-13T08:39:43.380Z,35.53
2018-01-13T08:42:10.928Z,31.13
2018-01-13T08:44:38.477Z,31.97
2018-01-13T08:47:06.017Z,31.90
2018-01-13T08:49:33.762Z,35.07
2018-01-13T08:52:01.479Z,30.97
2018-01-13T08:54:29.199Z,31.03
2018-01-13T08:56:56.818Z,31.83
2018-01-13T08:59:24.535Z,32.63
2018-01-13T09:01:55.671Z,34.00
2018-01-13T09:04:23.259Z,33.10
2018-01-13T09:06:50.999Z,32.30
2018-01-13T09:09:18.566Z,29.00
2018-01-13T09:11:46.335Z,31.67
2018-01-13T09:14:13.935Z,28.50
2018-01-13T09:16:41.482Z,72.67
2018-01-13T09:19:09.117Z,101.97
2018-01-13T09:21:36.654Z,38.07
2018-01-13T09:24:04.326Z,35.13
2018-01-13T09:26:31.911Z,39.37
2018-01-13T09:28:59.660Z,33.27
2018-01-13T09:31:27.252Z,33.23
2018-01-13T09:33:54.794Z,36.93
2018-01-13T09:36:22.938Z,37.93
2018-01-13T09:38:50.548Z,34.47
2018-01-13T09:41:18.255Z,37.43
2018-01-13T09:43:45.875Z,33.63
2018-01-13T09:46:13.476Z,28.20
2018-01-13T09:48:41.051Z,36.43
2018-01-13T09:51:08.823Z,37.73
2018-01-13T09:53:36.370Z,40.43
2018-01-13T09:56:04.036Z,50.20
2018-01-13T09:58:31.590Z,33.03
2018-01-13T10:00:59.189Z,33.13
2018-01-13T10:03:26.928Z,40.43
2018-01-13T10:05:54.636Z,40.17
2018-01-13T10:08:22.170Z,40.60
2018-01-13T10:10:49.744Z,45.70
2018-01-13T10:13:17.354Z,59.07
2018-01-13T10:15:45.197Z,38.60
2018-01-13T10:18:12.777Z,38.97
2018-01-13T10:20:40.438Z,33.30
2018-01-13T10:23:07.985Z,31.73
2018-01-13T10:25:35.774Z,41.20
2018-01-13T10:28:03.406Z,55.00
2018-01-13T10:30:30.946Z,38.03
2018-01-13T10:32:58.495Z,50.13
2018-01-13T10:35:26.042Z,38.80
2018-01-13T10:37:53.590Z,64.90
2018-01-13T10:40:21.272Z,67.50
2018-01-13T10:42:48.999Z,37.53
2018-01-13T10:45:16.550Z,34.77
2018-01-13T10:47:44.127Z,34.47
2018-01-13T10:50:11.675Z,34.93
2018-01-13T10:52:39.375Z,39.23
2018-01-13T10:55:08.095Z,28.67
2018-01-13T10:57:35.626Z,36.77
2018-01-13T11:00:03.334Z,31.40
2018-01-13T11:02:30.886Z,44.42
2018-01-13T11:04:58.462Z,38.80
2018-01-13T11:07:26.082Z,30.97
2018-01-13T11:09:54.074Z,28.97
2018-01-13T11:12:21.790Z,33.10
2018-01-13T11:14:49.327Z,30.77
2018-01-13T11:17:17.003Z,33.90
2018-01-13T11:19:44.602Z,30.03
2018-01-13T11:22:12.138Z,28.90
2018-01-13T11:24:39.695Z,28.77
2018-01-13T11:27:07.230Z,31.83
2018-01-13T11:29:34.944Z,29.80
2018-01-13T11:32:02.534Z,32.77
2018-01-13T11:34:30.234Z,61.50
2018-01-13T11:36:57.842Z,25.03
2018-01-13T11:39:25.407Z,31.73
2018-01-13T11:41:52.998Z,27.67
2018-01-13T11:44:20.541Z,28.20
2018-01-13T11:46:48.077Z,28.10
2018-01-13T11:49:15.630Z,29.07
2018-01-13T11:51:43.377Z,29.27
2018-01-13T11:54:11.123Z,29.73
2018-01-13T11:56:38.658Z,35.47
2018-01-13T11:59:06.357Z,36.03
2018-01-13T12:01:33.917Z,73.57
2018-01-13T12:04:01.462Z,41.23
2018-01-13T12:06:29.113Z,57.07
2018-01-13T12:08:56.731Z,34.50
2018-01-13T12:11:24.273Z,41.80
2018-01-13T12:13:51.853Z,26.63
2018-01-13T12:16:19.400Z,32.00
2018-01-13T12:18:47.101Z,33.63
2018-01-13T12:21:14.657Z,51.03
2018-01-13T12:23:42.198Z,35.50
2018-01-13T12:26:09.854Z,34.00
2018-01-13T12:28:37.571Z,82.30
2018-01-13T12:31:05.388Z,50.07
2018-01-13T12:33:32.930Z,53.03
2018-01-13T12:36:00.478Z,36.10
2018-01-13T12:38:28.242Z,36.27
2018-01-13T12:40:55.786Z,29.33
2018-01-13T12:43:23.460Z,54.27
2018-01-13T12:45:51.002Z,38.40
2018-01-13T12:48:18.542Z,33.47
2018-01-13T12:50:46.099Z,29.13
2018-01-13T12:53:13.701Z,66.53
2018-01-13T12:55:41.310Z,41.83
2018-01-13T12:58:08.852Z,30.33
2018-01-13T13:00:36.604Z,29.33
2018-01-13T13:03:04.170Z,44.10
2018-01-13T13:05:31.842Z,90.53
2018-01-13T13:07:59.447Z,103.87
2018-01-13T13:10:27.031Z,35.93
2018-01-13T13:12:54.570Z,31.77
2018-01-13T13:15:22.118Z,37.27
2018-01-13T13:17:49.932Z,41.30
2018-01-13T13:20:17.518Z,65.37
2018-01-13T13:22:45.134Z,48.90
2018-01-13T13:25:12.686Z,31.90
2018-01-13T13:27:40.249Z,30.93
2018-01-13T13:30:07.913Z,39.47
2018-01-13T13:32:35.819Z,25.50
2018-01-13T13:35:03.638Z,27.47
2018-01-13T13:37:31.226Z,34.00
2018-01-13T13:39:58.974Z,53.53
2018-01-13T13:42:26.509Z,21.60
2018-01-13T13:44:54.212Z,79.57
2018-01-13T13:47:21.777Z,30.27
2018-01-13T13:49:49.316Z,29.23
2018-01-13T13:52:17.032Z,23.50
2018-01-13T13:54:44.655Z,27.97
2018-01-13T13:57:12.243Z,20.30
2018-01-13T13:59:39.796Z,27.93
2018-01-13T14:02:07.329Z,29.50
2018-01-13T14:04:34.877Z,23.70
2018-01-13T14:07:02.418Z,29.77
2018-01-13T14:09:30.007Z,34.70
2018-01-13T14:11:57.542Z,28.03
2018-01-13T14:14:25.112Z,26.67
2018-01-13T14:16:52.666Z,26.07
2018-01-13T14:19:20.364Z,25.00
2018-01-13T14:21:47.949Z,23.10
2018-01-13T14:24:15.693Z,30.73
2018-01-13T14:26:43.245Z,35.03
2018-01-13T14:29:10.846Z,23.67
2018-01-13T14:31:38.390Z,24.37
2018-01-13T14:34:06.165Z,26.53
2018-01-13T14:36:33.747Z,144.07
2018-01-13T14:39:01.298Z,22.33
2018-01-13T14:41:28.850Z,20.42
2018-01-13T14:43:56.428Z,19.37
2018-01-13T14:46:24.154Z,22.53
2018-01-13T14:48:51.880Z,21.40
2018-01-13T14:51:19.664Z,27.57
2018-01-13T14:53:47.381Z,24.60
2018-01-13T14:56:15.099Z,24.45
2018-01-13T14:58:42.846Z,24.70
2018-01-13T15:01:10.665Z,19.07
2018-01-13T15:03:38.218Z,21.33
2018-01-13T15:06:05.771Z,23.97
2018-01-13T15:08:33.310Z,35.20
2018-01-13T15:11:00.894Z,35.70
2018-01-13T15:13:28.434Z,26.30
2018-01-13T15:15:55.999Z,33.25
2018-01-13T15:18:23.575Z,36.03
2018-01-13T15:20:51.306Z,37.47
2018-01-13T15:23:18.915Z,29.77
2018-01-13T15:25:46.462Z,32.13
2018-01-13T15:28:14.162Z,23.30
2018-01-13T15:30:41.714Z,46.40
2018-01-13T15:33:09.495Z,31.65
2018-01-13T15:35:37.106Z,32.20
2018-01-13T15:38:04.833Z,26.73
2018-01-13T15:40:32.379Z,27.85
2018-01-13T15:43:00.008Z,25.58
2018-01-13T15:45:27.575Z,21.63
2018-01-13T15:47:55.177Z,34.45
2018-01-13T15:50:22.714Z,25.03
2018-01-13T15:52:50.262Z,23.53
2018-01-13T15:55:17.822Z,35.67
2018-01-13T15:57:45.474Z,26.27
2018-01-13T16:00:13.291Z,26.77
2018-01-13T16:02:40.827Z,24.27
2018-01-13T16:05:08.426Z,26.65
2018-01-13T16:07:35.974Z,26.27
2018-01-13T16:10:03.763Z,20.95
2018-01-13T16:12:31.482Z,27.07
2018-01-13T16:14:59.026Z,23.00
2018-01-13T16:17:26.639Z,31.23
2018-01-13T16:19:54.307Z,30.73
2018-01-13T16:22:21.965Z,31.57
2018-01-13T16:24:49.566Z,19.10
2018-01-13T16:27:17.199Z,26.70
2018-01-13T16:29:44.730Z,18.63
2018-01-13T16:32:12.274Z,23.70
2018-01-13T16:34:39.813Z,20.50
2018-01-13T16:37:07.559Z,17.70
2018-01-13T16:39:35.109Z,19.37
2018-01-13T16:42:02.646Z,16.27
2018-01-13T16:44:30.197Z,20.87
2018-01-13T16:46:57.738Z,20.17
2018-01-13T16:49:25.334Z,31.40
2018-01-13T16:51:52.894Z,24.35
2018-01-13T16:54:20.506Z,19.60
2018-01-13T16:56:48.119Z,17.50
2018-01-13T16:59:15.669Z,24.83
2018-01-13T17:01:43.331Z,19.03
2018-01-13T17:04:10.866Z,17.43
2018-01-13T17:06:38.577Z,16.60
2018-01-13T17:09:06.340Z,15.67
2018-01-13T17:11:33.882Z,21.57
2018-01-13T17:14:01.474Z,16.43
2018-01-13T17:16:29.244Z,15.38
2018-01-13T17:18:56.965Z,16.92
2018-01-13T17:21:24.542Z,18.63
2018-01-13T17:23:52.077Z,12.00
2018-01-13T17:26:19.818Z,11.47
2018-01-13T17:28:47.368Z,24.43
2018-01-13T17:31:14.910Z,27.80
2018-01-13T17:33:42.578Z,19.73
2018-01-13T17:36:10.139Z,10.77
2018-01-13T17:38:37.758Z,15.10
2018-01-13T17:41:05.308Z,13.33
2018-01-13T17:43:32.942Z,25.57
2018-01-13T17:46:00.515Z,15.10
2018-01-13T17:48:28.097Z,18.73
2018-01-13T17:50:55.897Z,12.20
2018-01-13T17:53:23.455Z,18.70
2018-01-13T17:55:51.006Z,21.52
2018-01-13T17:58:18.747Z,16.30
2018-01-13T18:00:46.298Z,30.65
2018-01-13T18:03:14.084Z,22.37
2018-01-13T18:05:41.782Z,14.77
2018-01-13T18:08:09.620Z,14.98
2018-01-13T18:10:37.246Z,14.05
2018-01-13T18:13:04.891Z,19.00
2018-01-13T18:15:32.490Z,16.40
2018-01-13T18:18:00.194Z,19.65
2018-01-13T18:20:27.915Z,14.80
2018-01-13T18:22:55.478Z,16.30
2018-01-13T18:25:23.037Z,16.30
2018-01-13T18:27:50.639Z,13.70
2018-01-13T18:30:18.199Z,11.30
2018-01-13T18:32:45.770Z,12.55
2018-01-13T18:35:13.334Z,14.57
2018-01-13T18:37:40.877Z,18.75
2018-01-13T18:40:08.469Z,17.17
2018-01-13T18:42:36.023Z,13.95
2018-01-13T18:45:03.634Z,11.95
2018-01-13T18:47:31.196Z,12.95
2018-01-13T18:49:58.750Z,14.15
2018-01-13T18:52:26.543Z,12.37
2018-01-13T18:54:54.105Z,14.45
2018-01-13T18:57:21.840Z,20.08
2018-01-13T18:59:49.556Z,15.88
2018-01-13T19:02:17.105Z,18.87
2018-01-13T19:04:44.724Z,14.27
2018-01-13T19:07:12.284Z,14.73
2018-01-13T19:09:40.109Z,14.13
2018-01-13T19:12:07.776Z,12.95
2018-01-13T19:14:35.313Z,11.97
2018-01-13T19:17:03.122Z,12.23
2018-01-13T19:19:30.742Z,12.35
2018-01-13T19:21:58.298Z,12.32
2018-01-13T19:24:25.874Z,11.93
2018-01-13T19:26:53.433Z,13.60
2018-01-13T19:29:21.607Z,11.27
2018-01-13T19:31:49.235Z,13.45
2018-01-13T19:34:16.782Z,10.65
2018-01-13T19:36:44.471Z,13.68
2018-01-13T19:39:12.022Z,12.98
2018-01-13T19:41:39.643Z,15.85
2018-01-13T19:44:07.421Z,12.57
2018-01-13T19:46:34.967Z,9.90
2018-01-13T19:49:02.528Z,11.45
2018-01-13T19:51:30.086Z,8.70
2018-01-13T19:53:57.715Z,10.90
2018-01-13T19:56:25.270Z,15.50
2018-01-13T19:58:52.990Z,8.77
2018-01-13T20:01:20.602Z,14.02
2018-01-13T20:03:48.365Z,8.68
2018-01-13T20:06:15.974Z,12.13
2018-01-13T20:08:43.589Z,12.10
2018-01-13T20:11:11.324Z,31.75
2018-01-13T20:13:38.881Z,28.80
2018-01-13T20:16:06.450Z,9.20
2018-01-13T20:18:34.067Z,16.08
2018-01-13T20:21:01.787Z,13.52
2018-01-13T20:23:29.410Z,10.70
2018-01-13T20:25:56.970Z,13.90
2018-01-13T20:28:24.518Z,13.32
2018-01-13T20:30:52.150Z,11.12
2018-01-13T20:33:19.883Z,12.18
2018-01-13T20:35:47.795Z,12.82
2018-01-13T20:38:15.358Z,9.57
2018-01-13T20:40:42.910Z,9.85
2018-01-13T20:43:10.513Z,12.40
2018-01-13T20:45:38.058Z,9.40
2018-01-13T20:48:05.622Z,11.05
2018-01-13T20:50:33.200Z,12.43
2018-01-13T20:53:00.795Z,9.47
2018-01-13T20:55:28.398Z,15.05
2018-01-13T20:57:55.953Z,11.27
2018-01-13T21:00:23.563Z,11.80
2018-01-13T21:02:51.299Z,13.88
2018-01-13T21:05:18.862Z,11.18
2018-01-13T21:07:46.458Z,9.23
2018-01-13T21:10:14.014Z,56.72
2018-01-13T21:12:41.761Z,30.65
2018-01-13T21:15:09.487Z,12.65
2018-01-13T21:17:37.042Z,11.00
2018-01-13T21:20:04.816Z,13.30
2018-01-13T21:22:32.366Z,9.55
2018-01-13T21:24:59.913Z,12.27
2018-01-13T21:27:27.638Z,8.98
2018-01-13T21:29:55.182Z,9.98
2018-01-13T21:32:22.905Z,8.82
2018-01-13T21:34:50.625Z,7.57
2018-01-13T21:37:18.182Z,10.30
2018-01-13T21:39:45.740Z,9.85
2018-01-13T21:42:13.302Z,8.48
2018-01-13T21:44:40.994Z,9.75
2018-01-13T21:47:08.545Z,9.90
2018-01-13T21:49:36.101Z,8.95
2018-01-13T21:52:03.702Z,8.57
2018-01-13T21:54:31.298Z,8.77
2018-01-13T21:56:58.930Z,9.18
2018-01-13T21:59:26.474Z,8.93
2018-01-13T22:01:54.026Z,7.72
2018-01-13T22:04:21.837Z,8.20
2018-01-13T22:06:49.655Z,6.93
2018-01-13T22:09:17.284Z,9.10
2018-01-13T22:11:44.887Z,8.68
2018-01-13T22:14:12.490Z,8.23
2018-01-13T22:16:40.038Z,8.82
2018-01-13T22:19:07.598Z,7.87
2018-01-13T22:21:35.240Z,10.43
2018-01-13T22:24:02.786Z,7.80
2018-01-13T22:26:30.386Z,7.78
2018-01-13T22:28:58.119Z,10.38
2018-01-13T22:31:25.710Z,16.70
2018-01-13T22:33:53.519Z,8.90
2018-01-13T22:36:21.235Z,9.43
2018-01-13T22:38:48.785Z,8.88
2018-01-13T22:41:16.608Z,9.10
2018-01-13T22:43:44.325Z,9.65
2018-01-13T22:46:12.143Z,10.48
2018-01-13T22:48:39.693Z,8.60
2018-01-13T22:51:07.250Z,9.80
2018-01-13T22:53:34.802Z,10.55
2018-01-13T22:56:02.430Z,8.60
2018-01-13T22:58:30.023Z,7.97
2018-01-13T23:00:57.650Z,8.70
2018-01-13T23:03:25.213Z,7.25
2018-01-13T23:05:52.892Z,7.18
2018-01-13T23:08:20.457Z,7.90
2018-01-13T23:10:48.089Z,8.00
2018-01-13T23:13:15.633Z,7.65
2018-01-13T23:15:43.198Z,8.27
2018-01-13T23:18:10.802Z,8.45
2018-01-13T23:20:38.412Z,8.88
2018-01-13T23:23:06.402Z,9.80
2018-01-13T23:25:34.006Z,8.13
2018-01-13T23:28:01.610Z,9.00
2018-01-13T23:30:29.169Z,8.38
2018-01-13T23:32:56.718Z,8.43
2018-01-13T23:35:24.333Z,10.88
2018-01-13T23:37:51.881Z,10.10
2018-01-13T23:40:19.422Z,9.45
2018-01-13T23:42:46.972Z,10.88
2018-01-13T23:45:14.678Z,9.38
2018-01-13T23:47:42.489Z,8.20
2018-01-13T23:50:10.046Z,8.63
2018-01-13T23:52:37.598Z,9.52
2018-01-13T23:55:05.242Z,9.35
2018-01-13T23:57:32.852Z,9.60
